首页
METAR-TAF:

METAR-TAF

机场 :

克基拉岛扬尼斯·卡波迪斯特里亚斯国际机场

克基拉島, 希腊

纬度: 39-37N, 经度: 019-55E, 海拔: 2米

当前天气观测

该预报发布于17分钟前的06:50 UTC
静风
温度 19°C
湿度 88%
气压 1020 hPa
能见度10公里或以上
少量云层高于1600英尺

METAR: LGKR 200650Z 00000KT 9999 FEW016 19/17 Q1020 NOSIG

时间: 10:07 (07:07 UTC)

预报

该预报发布于2小时和7分钟前的05:00 UTC
预报有效从20日的 06点(UTC)到 21日的 06点(UTC)
风速5节,风向多变
能见度10公里或以上
少量云层高于1800英尺
几率 30%
从 20日的 06点(UTC)到 20日的 08点(UTC)
能見度: 5000
散云层高于1000英尺
轻雾

TAF: LGKR 200500Z 2006/2106 VRB05KT 9999 FEW018 PROB30 2006/2008 5000 BR SCT010

超过4000个机场的气象观测和天气预报(METAR&TAF报告)。

可查询的气象台以黄色和红色小点在地图上表示。

将鼠标移到小点上方,可查看气象台名称。

然后点击查看天气观测和预报。

如需切换地图:点击带黑十字的绿色按钮放大地图;点击带横线的绿色按钮缩小地图;或者点击绿色箭头查看邻近地区的地图。


METAR-TAF: